Tiempo atmosférico en la estación meteorológica de Banyalbufar, Illes Balears (60 m.)



Fecha
DESCASC
Temp. máxima en grados centígrados (hora)
DESCASC
Temp. mínima en grados centígrados (hora)
DESCASC
Temp. media en grados centígrados
DESCASC
Racha de viento máxima en m/sg (hora)
DESCASC
Velocidad máxima media en intervalos de 10 minutos(hora)
DESCASC
Precipitaciones diarias en mm
DESCASC
Precipitaciones de 00:00 a 06:00 en mm
DESCASC
Precipitaciones de 06:00 a 12:00 en mm
DESCASC
Precipitaciones de 12:00 a 18:00 en mm
DESCASC
Precipitaciones de 18:00 a 24:00 en mm
DESCASC
14-12-2019 19.1 (14:50) 12.8 (17:50) 16 14.17 (01:30) 8.61 (01:30) 0 0 0 0 0
13-12-2019 18.2 (18:40) 14.5 (00:00) 16.4 16.67 (00:30) 8.61 (18:20) 0 0 0 0 0
12-12-2019 14.6 (20:40) 13.1 (00:20) 13.9 15.28 (23:20) 8.33 (23:50) 0 0 0 0 0
11-12-2019 16.8 (12:50) 9.4 (00:00) 13.1 14.44 (23:10) 10.83 (23:10) 0 0 0 0 0
10-12-2019 16 (14:10) 10 (00:00) 13 13.89 (02:20) 10.28 (02:20) 0 0 0 0 0
09-12-2019 16.3 (13:00) 12 (00:00) 14.1 17.5 (22:00) 12.78 (22:00) 0 0 0 0 0
08-12-2019 15.3 (13:30) 9.4 (00:00) 12.3 6.11 (15:40) 3.89 (15:40) 0 0 0 0 0
07-12-2019 16.5 (14:30) 9.9 (00:00) 13.2 3.61 (16:50) 2.78 (02:50) 0 0 0 0 0
06-12-2019 15.6 (15:50) 11 (00:00) 13.3 4.44 (11:50) 2.78 (11:50) 0 0 0 0 0
05-12-2019 15.9 (15:30) 10.6 (00:00) 13.3 4.44 (01:00) 3.61 (01:00) 0 0 0 0 0
04-12-2019 14.8 (00:10) 10.8 (00:00) 12.8 14.17 (02:40) 5.83 (03:10) 74.2 47.8 21.4 5 0
03-12-2019 16.1 (22:30) 11.9 (00:00) 14 15.83 (11:50) 8.89 (06:50) 3 0.6 0 0 2.4
02-12-2019 15.1 (01:20) 12.1 (00:00) 13.6 11.39 (16:10) 6.67 (14:40) 3.6 3.4 0 0.2 0
01-12-2019 20.2 (00:00) 13.2 (00:00) 16.7 10.83 (01:50) 6.11 (02:20) 0 0 0 0 0
30-11-2019 20.3 (14:30) 13.1 (00:00) 16.7 11.94 (23:59) 5.28 (22:00) 0 0 0 0 0
29-11-2019 19.8 (15:50) 14 (00:00) 16.9 10.28 (00:10) 6.39 (03:50) 0 0 0 0 0
28-11-2019 17.2 (12:10) 14.5 (00:00) 15.9 9.72 (19:10) 5.28 (08:10) 0 0 0 0 0
27-11-2019 20.3 (03:00) 15.5 (00:00) 17.9 17.22 (04:40) 7.5 (04:20) 0 0 0 0 0
26-11-2019 19.8 (23:40) 13.2 (00:00) 16.5 16.39 (22:40) 7.78 (23:00) 0 0 0 0 0
25-11-2019 18 (15:30) 11.6 (00:00) 14.8 7.5 (06:50) 4.17 (00:40) 0 0 0 0 0
24-11-2019 15 (19:40) 13.9 (00:00) 14.4 16.67 (06:00) 11.11 (08:10) 0 0 0 0 0
23-11-2019 17.3 (02:40) 12.8 (00:00) 15 18.61 (00:30) 11.11 (21:20) 1.2 0.4 0.2 0.6 0
22-11-2019 18 (14:10) 13.1 (00:00) 15.6 20 (22:40) 9.17 (17:10) 19.6 0 0 1 18.6
21-11-2019 15.6 (23:59) 11.2 (00:00) 13.4 13.89 (03:10) 5 (03:10) 2.2 2.2 0 0 0
20-11-2019 16 (12:50) 8.3 (00:00) 12.2 9.17 (18:40) 5 (18:00) 0 0 0 0 0
19-11-2019 14.6 (15:40) 7.6 (00:00) 11.1 6.11 (15:10) 3.61 (07:10) 0.2 0 0 0.2 0
18-11-2019 14.2 (00:00) 9.4 (00:00) 11.8 15 (17:50) 8.61 (13:30) 15.4 9.8 0.2 0.2 5.2
17-11-2019 14.8 (22:30) 13.4 (00:00) 14.1 14.17 (01:00) 9.72 (03:20) 0 0 0 0 0
16-11-2019 14 (23:50) 7.7 (00:00) 10.8 14.72 (21:20) 10.28 (21:20) 8.2 8 0 0.2 0
15-11-2019 13.6 (14:30) 10.2 (00:00) 11.9 16.39 (07:10) 11.39 (07:10) 3.4 3.4 0 0 0

Gráficas

Temp. máximas Temp. mínimas Temp. medias Precipitaciones Rachas de viento máximas Velocidades máximas media en intervalos de 10 minutos

Datos horarios

Fecha y hora oficial Temperatura (ºC) Velocidad del viento (km/h) Dirección del viento Racha (km/h) Dirección de racha Precipitación (mm) Presión (hPa) Tendencia (hPa) Humedad (%)
2019-12-14 23:00:00 14.9 7 Sudoeste 24 Oeste 0 -- -- 48
2019-12-14 22:00:00 14.7 8 Sudoeste 28 Sur 0 -- -- 54
2019-12-14 21:00:00 14.8 11 Sudoeste 26 Sudoeste 0 -- -- 52
2019-12-14 20:00:00 15.2 16 Sudoeste 23 Sudoeste 0 -- -- 43
2019-12-14 19:00:00 14.5 8 Sudoeste 20 Sudoeste 0 -- -- 52
2019-12-14 18:00:00 12.9 8 Sur 15 Sudoeste 0 -- -- 65
2019-12-14 17:00:00 13.6 6 Sur 20 Oeste 0 -- -- 63
2019-12-14 16:00:00 16.2 8 Oeste 21 Oeste 0 -- -- 63
2019-12-14 15:00:00 18 8 Oeste 16 Oeste 0 -- -- 51
2019-12-14 14:00:00 17.4 6 Oeste 14 Oeste 0 -- -- 53
2019-12-14 13:00:00 17.4 3 Noroeste 10 Oeste 0 -- -- 48
2019-12-14 12:00:00 18.3 4 Sudoeste 33 Sudoeste 0 -- -- 40
2019-12-14 11:00:00 16.4 15 Sudoeste 32 Sudoeste 0 -- -- 51
2019-12-14 10:00:00 16.5 15 Sudoeste 35 Sur 0 -- -- 43
2019-12-14 09:00:00 15.7 20 Sudoeste 33 Sudoeste 0 -- -- 55
2019-12-14 08:00:00 15.6 17 Sudoeste 39 Sur 0 -- -- 58
2019-12-14 07:00:00 15.3 22 Sudoeste 38 Sudoeste 0 -- -- 62
2019-12-14 06:00:00 15.4 14 Sudoeste 36 Sur 0 -- -- 62
2019-12-14 05:00:00 15.6 19 Sudoeste 30 Sudoeste 0 -- -- 62
2019-12-14 04:00:00 15.5 16 Sudoeste 26 Sur 0 -- -- 63
2019-12-14 03:00:00 16 14 Sudoeste 31 Sudoeste 0 -- -- 62
2019-12-14 02:00:00 16.2 15 Sudoeste 51 Sudoeste 0 -- -- 60
2019-12-14 01:00:00 16.4 18 Sudoeste 37 Oeste 0 -- -- 61
2019-12-14 00:00:00 16.7 22 Sudoeste 48 Sudoeste 0 -- -- 58
2019-12-13 23:00:00 16.8 19 Sudoeste 41 Oeste 0 -- -- 59
2019-12-13 22:00:00 17 21 Sudoeste 42 Oeste 0 -- -- 57
2019-12-13 21:00:00 17.1 21 Sudoeste 50 Sudoeste 0 -- -- 56
2019-12-13 20:00:00 17.2 25 Oeste 46 Sudoeste 0 -- -- 57
2019-12-13 19:00:00 18 26 Sudoeste 56 Sudoeste 0 -- -- 47
2019-12-13 18:00:00 16.9 23 Sudoeste 44 Oeste 0 -- -- 57
2019-12-13 17:00:00 16.9 25 Oeste 49 Sudoeste 0 -- -- 57
2019-12-13 16:00:00 16.9 20 Sudoeste 51 Oeste 0 -- -- 56
2019-12-13 15:00:00 16.9 27 Oeste 56 Oeste 0 -- -- 56
2019-12-13 14:00:00 16.8 25 Oeste 54 Oeste 0 -- -- 58
2019-12-13 13:00:00 17 22 Oeste 54 Oeste 0 -- -- 58
2019-12-13 12:00:00 17 25 Sudoeste 51 Sudoeste 0 -- -- 59
2019-12-13 11:00:00 17 22 Sudoeste 49 Oeste 0 -- -- 59
2019-12-13 10:00:00 16.7 23 Sudoeste 60 Oeste 0 -- -- 59
2019-12-13 09:00:00 16.4 24 Sudoeste 58 Sudoeste 0 -- -- 60
2019-12-13 08:00:00 15.9 19 Sudoeste 45 Sudoeste 0 -- -- 61
2019-12-13 07:00:00 15.8 18 Sudoeste 52 Oeste 0 -- -- 60
2019-12-13 06:00:00 15.6 22 Sudoeste 49 Oeste 0 -- -- 61
2019-12-13 05:00:00 15.3 20 Sudoeste 50 Sudoeste 0 -- -- 62
2019-12-13 04:00:00 15.3 21 Sudoeste 52 Sudoeste 0 -- -- 61
2019-12-13 03:00:00 15.2 25 Sudoeste 57 Oeste 0 -- -- 59
2019-12-13 02:00:00 15 26 Sudoeste 57 Sudoeste 0 -- -- 57
2019-12-13 01:00:00 14.9 27 Sudoeste 60 Sudoeste 0 -- -- 57
2019-12-13 00:00:00 14.5 27 Oeste 55 Oeste 0 -- -- 56
2019-12-12 23:00:00 14.2 19 Oeste 53 Oeste 0 -- -- 55
2019-12-12 22:00:00 14.2 15 Oeste 50 Oeste 0 -- -- 56
2019-12-12 21:00:00 14.4 20 Oeste 54 Oeste 0 -- -- 54
2019-12-12 20:00:00 14.2 19 Oeste 41 Sudoeste 0 -- -- 55
2019-12-12 19:00:00 14 17 Sudoeste 42 Oeste 0 -- -- 55
2019-12-12 18:00:00 13.8 18 Oeste 36 Sudoeste 0 -- -- 54
2019-12-12 17:00:00 13.5 16 Oeste 33 Oeste 0 -- -- 57
2019-12-12 16:00:00 13.7 14 Oeste 29 Oeste 0 -- -- 55
2019-12-12 15:00:00 13.9 12 Oeste 29 Sudoeste 0 -- -- 52
2019-12-12 14:00:00 14.2 15 Oeste 33 Noroeste 0 -- -- 52
2019-12-12 13:00:00 14.3 13 Oeste 31 Oeste 0 -- -- 54
2019-12-12 12:00:00 14.4 13 Oeste 35 Noroeste 0 -- -- 43
2019-12-12 11:00:00 14.3 18 Noroeste 35 Noroeste 0 -- -- 38
2019-12-12 10:00:00 14.3 16 Noroeste 35 Oeste 0 -- -- 42
2019-12-12 09:00:00 14.1 16 Noroeste 34 Oeste 0 -- -- 39
2019-12-12 08:00:00 14 19 Noroeste 39 Noroeste 0 -- -- 41
2019-12-12 07:00:00 13.9 18 Noroeste 40 Noroeste 0 -- -- 40
2019-12-12 06:00:00 14 16 Noroeste 37 Noroeste 0 -- -- 41
2019-12-12 05:00:00 14 21 Noroeste 39 Noroeste 0 -- -- 39
2019-12-12 04:00:00 14.3 21 Noroeste 43 Noroeste 0 -- -- 37
2019-12-12 03:00:00 13.3 14 Noroeste 30 Noroeste 0 -- -- 46
2019-12-12 02:00:00 13.1 26 Norte 44 Norte 0 -- -- 46
2019-12-12 01:00:00 13.1 12 Noroeste 37 Norte 0 -- -- 48
2019-12-12 00:00:00 13.2 25 Norte 52 Noroeste 0 -- -- 41
2019-12-11 23:00:00 13.5 32 Norte 50 Norte 0 -- -- 41
2019-12-11 22:00:00 13.4 32 Norte 50 Noroeste 0 -- -- 51
2019-12-11 21:00:00 13.7 29 Norte 45 Noroeste 0 -- -- 54
2019-12-11 20:00:00 13.7 34 Norte 49 Noroeste 0 -- -- 51
2019-12-11 19:00:00 14.1 32 Norte 49 Norte 0 -- -- 51
2019-12-11 18:00:00 13.8 20 Norte 33 Norte 0 -- -- 60
2019-12-11 17:00:00 13.9 6 Oeste 23 Sudoeste 0 -- -- 55
2019-12-11 16:00:00 15 14 Oeste 29 Oeste 0 -- -- 46
2019-12-11 15:00:00 15.1 15 Sudoeste 30 Oeste 0 -- -- 56
2019-12-11 14:00:00 15.9 11 Oeste 26 Sudoeste 0 -- -- 47
2019-12-11 13:00:00 16.5 9 Sudoeste 19 Oeste 0 -- -- 51
2019-12-11 12:00:00 15.8 6 Sudoeste 18 Oeste 0 -- -- 46
2019-12-11 11:00:00 14.2 6 Sur 13 Sur 0 -- -- 41
2019-12-11 10:00:00 11.8 6 Sur 13 Sudoeste 0 -- -- 46
2019-12-11 09:00:00 10.9 7 Sur 14 Sur 0 -- -- 45
2019-12-11 08:00:00 9.6 9 Sur 16 Sur 0 -- -- 46
2019-12-11 07:00:00 9.6 10 Sur 14 Sur 0 -- -- 45
2019-12-11 06:00:00 10.4 7 Sur 20 Sudoeste 0 -- -- 45
2019-12-11 05:00:00 11.4 9 Sudoeste 19 Sudoeste 0 -- -- 58
2019-12-11 04:00:00 10.1 12 Sur 16 Sudoeste 0 -- -- 71
2019-12-11 03:00:00 9.4 12 Sur 17 Sur 0 -- -- 70
2019-12-11 02:00:00 10 11 Sur 16 Sur 0 -- -- 72
2019-12-11 01:00:00 10 12 Sur 17 Sur 0 -- -- 71
2019-12-11 00:00:00 10.3 13 Sur 18 Sur 0 -- -- 70
2019-12-10 23:00:00 10.2 12 Sur 15 Sur 0 -- -- 69
2019-12-10 22:00:00 10.3 10 Sur 19 Sudoeste 0 -- -- 66
2019-12-10 21:00:00 10.5 11 Sur 18 Sudoeste 0 -- -- 64
2019-12-10 20:00:00 11.8 10 Sudoeste 18 Sur 0 -- -- 63
2019-12-10 19:00:00 10.9 11 Sudoeste 17 Sudoeste 0 -- -- 67
2019-12-10 18:00:00 10.2 11 Sur 18 Sudoeste 0 -- -- 61
2019-12-10 17:00:00 11.2 8 Sur 12 Sudoeste 0 -- -- 60
2019-12-10 16:00:00 13.6 4 Oeste 13 Norte 0 -- -- 53
2019-12-10 15:00:00 14.5 6 Oeste 15 Oeste 0 -- -- 47
2019-12-10 14:00:00 15.6 4 Sudoeste 10 Oeste 0 -- -- 43
2019-12-10 13:00:00 14.6 4 Oeste 12 Sudoeste 0 -- -- 47
2019-12-10 12:00:00 14.1 3 Sur 14 Norte 0 -- -- 48
2019-12-10 11:00:00 12.8 6 Nordeste 21 Norte 0 -- -- 53
2019-12-10 10:00:00 13 13 Norte 29 Norte 0 -- -- 56
2019-12-10 09:00:00 13.1 23 Norte 33 Norte 0 -- -- 58
2019-12-10 08:00:00 13.2 21 Norte 36 Norte 0 -- -- 55
2019-12-10 07:00:00 13.4 28 Norte 36 Norte 0 -- -- 55
2019-12-10 06:00:00 13.4 23 Norte 45 Noroeste 0 -- -- 54
2019-12-10 05:00:00 13.5 34 Norte 50 Noroeste 0 -- -- 54
2019-12-10 04:00:00 13.4 35 Norte 49 Noroeste 0 -- -- 54
2019-12-10 03:00:00 13.5 33 Noroeste 50 Norte 0 -- -- 57
2019-12-10 02:00:00 13.8 32 Norte 48 Norte 0 -- -- 55
2019-12-10 01:00:00 13.8 34 Norte 43 Norte 0 -- -- 52
2019-12-10 00:00:00 13.8 30 Norte 42 Norte 0 -- -- 54
2019-12-09 23:00:00 13.9 33 Noroeste 56 Noroeste 0 -- -- 51
2019-12-09 22:00:00 14.4 46 Norte 63 Noroeste 0 -- -- 49
2019-12-09 21:00:00 14.6 36 Norte 56 Noroeste 0 -- -- 53
2019-12-09 20:00:00 14.8 35 Norte 54 Noroeste 0 -- -- 50
2019-12-09 19:00:00 14.9 28 Norte 46 Noroeste 0 -- -- 51
2019-12-09 18:00:00 15 30 Norte 49 Norte 0 -- -- 45
2019-12-09 17:00:00 15.2 18 Noroeste 46 Norte 0 -- -- 47
2019-12-09 16:00:00 15.2 25 Norte 44 Norte 0 -- -- 47
2019-12-09 15:00:00 15.3 24 Norte 51 Norte 0 -- -- 42
2019-12-09 14:00:00 15.3 21 Noroeste 46 Noroeste 0 -- -- 42
2019-12-09 13:00:00 16.3 28 Norte 51 Norte 0 -- -- 39
2019-12-09 12:00:00 15.8 13 Oeste 27 Noroeste 0 -- -- 41
2019-12-09 11:00:00 15.3 22 Norte 44 Norte 0 -- -- 43
2019-12-09 10:00:00 12.6 8 Sur 16 Sudoeste 0 -- -- 61
2019-12-09 09:00:00 13.1 9 Sudoeste 19 Sudoeste 0 -- -- 55
2019-12-09 08:00:00 13.2 6 Sudoeste 18 Sudoeste 0 -- -- 66
2019-12-09 07:00:00 13.1 10 Sudoeste 16 Sudoeste 0 -- -- 65
2019-12-09 06:00:00 14.2 8 Noroeste 38 Noroeste 0 -- -- 60
2019-12-09 05:00:00 14.7 12 Noroeste 24 Noroeste 0 -- -- 61
2019-12-09 04:00:00 15.1 11 Noroeste 24 Oeste 0 -- -- 58
2019-12-09 03:00:00 14.5 16 Sudoeste 32 Sur 0 -- -- 63
2019-12-09 02:00:00 14.8 7 Sudoeste 23 Sur 0 -- -- 54
2019-12-09 01:00:00 14.3 5 Sudoeste 17 Sudoeste 0 -- -- 60
2019-12-09 00:00:00 13.2 5 Sur 9 Sur 0 -- -- 60
2019-12-08 23:00:00 13.9 3 Sudeste 20 Sur 0 -- -- 56
2019-12-08 22:00:00 13.4 4 Sudoeste 14 Oeste 0 -- -- 68
2019-12-08 21:00:00 13.6 5 Sudoeste 14 Oeste 0 -- -- 66
2019-12-08 20:00:00 11.5 7 Sur 11 Sur 0 -- -- 69
2019-12-08 19:00:00 12.1 6 Sur 18 Sudoeste 0 -- -- 70
2019-12-08 18:00:00 13 8 Sudoeste 19 Sur 0 -- -- 72
2019-12-08 17:00:00 13.7 8 Sudoeste 20 Oeste 0 -- -- 69
2019-12-08 16:00:00 14.4 10 Oeste 22 Sudoeste 0 -- -- 66
2019-12-08 15:00:00 14.9 11 Oeste 20 Oeste 0 -- -- 63
2019-12-08 14:00:00 14.3 9 Sudoeste 19 Sudoeste 0 -- -- 65
2019-12-08 13:00:00 15 11 Oeste 19 Oeste 0 -- -- 64
2019-12-08 12:00:00 14.7 8 Oeste 15 Sudoeste 0 -- -- 65
2019-12-08 11:00:00 14.1 5 Oeste 11 Sudoeste 0 -- -- 70
2019-12-08 10:00:00 12.9 5 Sudoeste 13 Sudoeste 0 -- -- 74
2019-12-08 09:00:00 11.7 9 Sur 13 Sur 0 -- -- 77
2019-12-08 08:00:00 10.3 10 Sur 13 Sur 0 -- -- 74
2019-12-08 07:00:00 9.8 9 Sur 14 Sur 0 -- -- 75
2019-12-08 06:00:00 9.6 12 Sur 15 Sur 0 -- -- 77
2019-12-08 05:00:00 9.5 10 Sur 13 Sur 0 -- -- 76
2019-12-08 04:00:00 9.6 10 Sur 14 Sur 0 -- -- 75
2019-12-08 03:00:00 10 8 Sur 12 Sur 0 -- -- 73
2019-12-08 02:00:00 10 7 Sur 12 Sur 0 -- -- 72
2019-12-08 01:00:00 9.9 6 Sur 11 Sur 0 -- -- 77
2019-12-08 00:00:00 10.2 6 Sur 10 Sur 0 -- -- 78
2019-12-07 23:00:00 10.1 9 Sur 12 Sur 0 -- -- 79
2019-12-07 22:00:00 10 9 Sur 13 Sur 0 -- -- 79
2019-12-07 21:00:00 10.1 8 Sur 13 Sur 0 -- -- 79
2019-12-07 20:00:00 10.5 7 Sur 11 Sur 0 -- -- 79
2019-12-07 19:00:00 11.3 6 Sur 10 Sur 0 -- -- 79
2019-12-07 18:00:00 10.7 9 Sur 13 Sur 0 -- -- 76
2019-12-07 17:00:00 11.5 9 Sur 13 Sur 0 -- -- 72
2019-12-07 16:00:00 13.8 5 Sur 10 Sur 0 -- -- 66
2019-12-07 15:00:00 14.4 4 Sur 6 Sur 0 -- -- 68
2019-12-07 14:00:00 15 0 Calma 7 Nordeste 0 -- -- 69
2019-12-07 13:00:00 14.8 3 Nordeste 6 Norte 0 -- -- 70
2019-12-07 12:00:00 15 2 Nordeste 5 Nordeste 0 -- -- 74
2019-12-07 11:00:00 15 2 Sur 10 Sur 0 -- -- 81
2019-12-07 10:00:00 11.7 9 Sur 12 Sur 0 -- -- 81
2019-12-07 09:00:00 11 9 Sur 13 Sur 0 -- -- 80
2019-12-07 08:00:00 10.9 7 Sur 10 Sur 0 -- -- 80
2019-12-07 07:00:00 11.7 5 Sur 10 Sur 0 -- -- 80
2019-12-07 06:00:00 12.1 5 Sudeste 10 Sur 0 -- -- 80
2019-12-07 05:00:00 12.1 8 Sur 10 Sur 0 -- -- 81
2019-12-07 04:00:00 12 8 Sur 13 Sur 0 -- -- 80
2019-12-07 03:00:00 10.9 10 Sur 13 Sur 0 -- -- 79
2019-12-07 02:00:00 10.9 9 Sur 12 Sur 0 -- -- 79
2019-12-07 01:00:00 10.9 10 Sur 13 Sur 0 -- -- 78
2019-12-07 00:00:00 11.4 8 Sur 12 Sur 0 -- -- 78
2019-12-06 23:00:00 11.5 6 Sur 12 Sur 0 -- -- 79
2019-12-06 22:00:00 11.3 9 Sur 12 Sur 0 -- -- 79
2019-12-06 21:00:00 12.5 6 Sur 10 Sur 0 -- -- 77
2019-12-06 20:00:00 13.4 6 Sur 14 Sudeste 0 -- -- 77
2019-12-06 19:00:00 12.8 6 Sudeste 9 Sur 0 -- -- 79
2019-12-06 18:00:00 13.1 8 Sur 13 Sudeste 0 -- -- 77
2019-12-06 17:00:00 13.6 5 Sudeste 7 Sudeste 0 -- -- 71
2019-12-06 16:00:00 15.6 3 Este 12 Nordeste 0 -- -- 67
2019-12-06 15:00:00 14.8 8 Nordeste 13 Nordeste 0 -- -- 70
2019-12-06 14:00:00 14.8 5 Nordeste 13 Nordeste 0 -- -- 71
2019-12-06 13:00:00 14.9 6 Nordeste 15 Este 0 -- -- 71
2019-12-06 12:00:00 14.8 9 Este 16 Este 0 -- -- 70
2019-12-06 11:00:00 14 4 Sur 10 Sur 0 -- -- 74
2019-12-06 10:00:00 12.4 5 Sur 11 Sur 0 -- -- 74
2019-12-06 09:00:00 11.6 6 Sur 12 Sur 0 -- -- 76
2019-12-06 08:00:00 11.8 7 Sur 11 Sur 0 -- -- 75
2019-12-06 07:00:00 12.4 6 Sudeste 9 Sudeste 0 -- -- 78
2019-12-06 06:00:00 12.2 5 Sudeste 10 Este 0 -- -- 78
2019-12-06 05:00:00 12.1 5 Sudeste 9 Este 0 -- -- 77
2019-12-06 04:00:00 12 6 Este 10 Este 0 -- -- 78
2019-12-06 03:00:00 11.9 8 Sur 11 Sur 0 -- -- 79
2019-12-06 02:00:00 11 7 Sur 12 Sur 0 -- -- 78
2019-12-06 01:00:00 11.2 8 Sur 13 Sur 0 -- -- 78
2019-12-06 00:00:00 11.1 9 Sur 12 Sur 0 -- -- 78
2019-12-05 23:00:00 11.2 7 Sur 13 Sur 0 -- -- 78
2019-12-05 22:00:00 11.8 4 Sudeste 12 Sudeste 0 -- -- 78
2019-12-05 21:00:00 12.3 7 Sur 10 Sudeste 0 -- -- 80
2019-12-05 20:00:00 12.2 8 Sur 10 Sudeste 0 -- -- 80
2019-12-05 19:00:00 11.8 8 Sur 13 Sur 0 -- -- 80
2019-12-05 18:00:00 12.2 6 Sur 10 Sur 0 -- -- 77
2019-12-05 17:00:00 13.7 5 Sur 9 Sur 0 -- -- 74
2019-12-05 16:00:00 15.8 2 Sudeste 11 Sudoeste 0 -- -- 67
2019-12-05 15:00:00 15.2 5 Sur 10 Oeste 0 -- -- 69
2019-12-05 14:00:00 15.1 2 Sudeste 7 Sudoeste 0 -- -- 70
2019-12-05 13:00:00 15.1 2 Sudoeste 10 Sur 0 -- -- 73
2019-12-05 12:00:00 14.4 5 Sur 12 Sur 0 -- -- 72
2019-12-05 11:00:00 13.7 9 Sur 13 Sudoeste 0 -- -- 77
2019-12-05 10:00:00 11.7 10 Sur 13 Sur 0 -- -- 78
2019-12-05 09:00:00 11.1 11 Sur 13 Sur 0 -- -- 79
2019-12-05 08:00:00 10.6 6 Sur 14 Sur 0 -- -- 80
2019-12-05 07:00:00 10.7 8 Sur 14 Sur 0 -- -- 80
2019-12-05 06:00:00 10.7 10 Sur 13 Sur 0 -- -- 80
2019-12-05 05:00:00 10.9 8 Sur 13 Sur 0 -- -- 79
2019-12-05 04:00:00 11.6 9 Sur 13 Sur 0 -- -- 77
2019-12-05 03:00:00 11.6 6 Sur 12 Sur 0 -- -- 77
2019-12-05 02:00:00 10.6 10 Sur 14 Sur 0 -- -- 74
2019-12-05 01:00:00 10.9 13 Sur 16 Sudoeste 0 -- -- 73
2019-12-05 00:00:00 11 10 Sur 16 Sur 0 -- -- 71
2019-12-04 23:00:00 12.2 10 Sudeste 16 Sudeste 0 -- -- 66
2019-12-04 22:00:00 12.3 8 Sur 22 Nordeste 0 -- -- 62
2019-12-04 21:00:00 13.1 14 Nordeste 26 Nordeste 0 -- -- 58
2019-12-04 20:00:00 12.2 6 Este 17 Este 0 -- -- 66
2019-12-04 19:00:00 11.3 7 Sur 12 Sudeste 0 -- -- 67
2019-12-04 18:00:00 11.9 5 Este 14 Este 0 -- -- 73
2019-12-04 17:00:00 11.9 3 Sur 11 Nordeste 0 -- -- 79
2019-12-04 16:00:00 12 5 Sudeste 15 Sudeste 0 -- -- 80
2019-12-04 15:00:00 11.7 8 Sudeste 14 Sudeste 0.2 -- -- 82
2019-12-04 14:00:00 12.1 5 Nordeste 12 Norte 1.8 -- -- 83
2019-12-04 13:00:00 11.6 5 Sur 11 Sur 3 -- -- 81
2019-12-04 12:00:00 11.5 6 Sur 23 Sur 10.4 -- -- 79
2019-12-04 11:00:00 12.7 2 Este 18 Sudeste 7.8 -- -- 76
2019-12-04 10:00:00 12.8 10 Este 24 Sudeste 0.8 -- -- 69
2019-12-04 09:00:00 13.1 15 Sudeste 28 Sudeste 0.4 -- -- 71
2019-12-04 08:00:00 13.6 8 Sudeste 36 Sudeste 1 -- -- 76
2019-12-04 07:00:00 12.7 12 Sur 22 Este 1 -- -- 79
2019-12-04 06:00:00 12.5 12 Este 40 Sudeste 9 -- -- 80
2019-12-04 05:00:00 11.7 10 Sudeste 21 Este 5 -- -- 81
2019-12-04 04:00:00 10.9 10 Este 45 Sudeste 7 -- -- 80
2019-12-04 03:00:00 11.2 17 Este 51 Este 16.2 -- -- 77
2019-12-04 02:00:00 14.5 9 Este 28 Este 4.6 -- -- 76
2019-12-04 01:00:00 14.6 5 Sudeste 17 Sudeste 6 -- -- 76
2019-12-04 00:00:00 14.7 8 Sudeste 18 Sudeste 0.6 -- -- 73
2019-12-03 23:00:00 15.2 7 Este 23 Nordeste 1.8 -- -- 65
2019-12-03 22:00:00 16 5 Este 15 Nordeste 0 -- -- 56
2019-12-03 21:00:00 15.5 7 Este 20 Sudeste 0 -- -- 58
2019-12-03 20:00:00 14.1 5 Sudeste 14 Este 0 -- -- 62
2019-12-03 19:00:00 13.8 7 Sudeste 36 Nordeste 0 -- -- 67
2019-12-03 18:00:00 14.6 28 Nordeste 52 Norte 0 -- -- 77
2019-12-03 17:00:00 14.3 28 Nordeste 49 Nordeste 0 -- -- 77
2019-12-03 16:00:00 14.2 32 Nordeste 53 Nordeste 0 -- -- 75
2019-12-03 15:00:00 13.9 28 Nordeste 47 Nordeste 0 -- -- 71
2019-12-03 14:00:00 14.3 23 Nordeste 37 Nordeste 0 -- -- 60
2019-12-03 13:00:00 13 22 Nordeste 45 Nordeste 0 -- -- 60
2019-12-03 12:00:00 12.5 32 Nordeste 57 Nordeste 0 -- -- 60
2019-12-03 11:00:00 12.7 32 Nordeste 51 Nordeste 0 -- -- 57
2019-12-03 10:00:00 12.5 30 Nordeste 46 Nordeste 0 -- -- 58
2019-12-03 09:00:00 12.6 25 Nordeste 48 Nordeste 0 -- -- 57
2019-12-03 08:00:00 12.6 28 Nordeste 50 Nordeste 0 -- -- 58
2019-12-03 07:00:00 12.6 30 Nordeste 50 Nordeste 0 -- -- 56
2019-12-03 06:00:00 12.7 26 Nordeste 50 Nordeste 0 -- -- 57
2019-12-03 05:00:00 12.3 17 Nordeste 39 Nordeste 0 -- -- 60
2019-12-03 04:00:00 12 9 Este 29 Este 0.4 -- -- 63
2019-12-03 03:00:00 12.4 8 Este 40 Nordeste 0.2 -- -- 60
2019-12-03 02:00:00 13.2 13 Nordeste 47 Nordeste 0 -- -- 57
2019-12-03 01:00:00 13.4 17 Nordeste 46 Nordeste 0 -- -- 60
2019-12-03 00:00:00 13.2 8 Este 33 Nordeste 0 -- -- 54
2019-12-02 23:00:00 13.8 21 Nordeste 37 Nordeste 0 -- -- 56
2019-12-02 22:00:00 13.4 12 Este 27 Este 0 -- -- 55
2019-12-02 21:00:00 12.4 8 Sudeste 16 Sudeste 0 -- -- 59
2019-12-02 20:00:00 12.4 7 Sudeste 17 Sur 0 -- -- 60
2019-12-02 19:00:00 13 7 Este 19 Sudeste 0 -- -- 59
2019-12-02 18:00:00 13.5 9 Este 37 Nordeste 0 -- -- 58
2019-12-02 17:00:00 14 18 Nordeste 41 Nordeste 0 -- -- 60
2019-12-02 16:00:00 14.3 23 Nordeste 37 Nordeste 0 -- -- 59
2019-12-02 15:00:00 14.4 23 Nordeste 37 Nordeste 0 -- -- 62
2019-12-02 14:00:00 14.3 23 Nordeste 40 Nordeste 0 -- -- 64
2019-12-02 13:00:00 14.3 19 Nordeste 37 Nordeste 0.2 -- -- 65
2019-12-02 12:00:00 14.4 7 Nordeste 23 Nordeste 0 -- -- 67
2019-12-02 11:00:00 14.1 14 Nordeste 34 Nordeste 0 -- -- 68
2019-12-02 10:00:00 14.2 14 Este 31 Este 0 -- -- 70
2019-12-02 09:00:00 13.7 12 Este 35 Nordeste 0 -- -- 75
2019-12-02 08:00:00 13.7 15 Este 29 Nordeste 0 -- -- 77
2019-12-02 07:00:00 13.8 11 Este 27 Nordeste 0 -- -- 78
2019-12-02 06:00:00 13.9 13 Nordeste 19 Nordeste 1.2 -- -- 77
2019-12-02 05:00:00 14.1 3 Este 15 Este 2.2 -- -- 73
2019-12-02 04:00:00 14.9 10 Nordeste 21 Nordeste 0 -- -- 70
2019-12-02 03:00:00 14.3 5 Sudeste 13 Este 0 -- -- 67
2019-12-02 02:00:00 14.4 5 Sur 14 Nordeste 0 -- -- 68
2019-12-02 01:00:00 14.7 3 Sudeste 13 Sudeste 0 -- -- 70
2019-12-02 00:00:00 13.8 6 Sur 9 Sur 0 -- -- 72
2019-12-01 23:00:00 13.4 7 Sur 10 Sur 0 -- -- 72
2019-12-01 22:00:00 13.6 6 Sur 12 Sudeste 0 -- -- 71
2019-12-01 21:00:00 14.3 5 Sudeste 11 Sudoeste 0 -- -- 72
2019-12-01 20:00:00 13.2 8 Sur 11 Sudeste 0 -- -- 72
2019-12-01 19:00:00 13.8 5 Sudeste 10 Sur 0 -- -- 73
2019-12-01 18:00:00 14.8 2 Norte 12 Este 0 -- -- 72
2019-12-01 17:00:00 15.3 6 Nordeste 15 Norte 0 -- -- 72
2019-12-01 16:00:00 16.8 6 Noroeste 16 Oeste 0 -- -- 64
2019-12-01 15:00:00 16.6 9 Sudoeste 21 Oeste 0 -- -- 62
2019-12-01 14:00:00 17.6 10 Oeste 23 Oeste 0 -- -- 56
2019-12-01 13:00:00 18 15 Oeste 28 Sudoeste 0 -- -- 49
2019-12-01 12:00:00 18.1 14 Sudoeste 30 Oeste 0 -- -- 42
2019-12-01 11:00:00 17.6 10 Sudoeste 25 Sudoeste 0 -- -- 52
2019-12-01 10:00:00 16.7 9 Sudoeste 20 Sudoeste 0 -- -- 54
2019-12-01 09:00:00 16.3 7 Sudoeste 17 Sudoeste 0 -- -- 61
2019-12-01 08:00:00 15.9 4 Sudoeste 14 Sudoeste 0 -- -- 60
2019-12-01 07:00:00 15.5 7 Sudoeste 25 Sudoeste 0 -- -- 61
2019-12-01 06:00:00 16 5 Sudeste 32 Sur 0 -- -- 54
2019-12-01 05:00:00 17.1 14 Sudoeste 28 Sudoeste 0 -- -- 45
2019-12-01 04:00:00 17.2 12 Sur 32 Sur 0 -- -- 47
2019-12-01 03:00:00 16.6 20 Sur 34 Sur 0 -- -- 55
2019-12-01 02:00:00 17 20 Sur 39 Sur 0 -- -- 51
2019-12-01 01:00:00 17.9 8 Sur 38 Sur 0 -- -- 41
2019-12-01 00:00:00 20.2 10 Sur 43 Oeste 0 -- -- 25
2019-11-30 23:00:00 18.8 12 Sur 37 Sudoeste 0 -- -- 30
2019-11-30 22:00:00 19.5 19 Sur 40 Oeste 0 -- -- 30
2019-11-30 21:00:00 17.6 6 Nordeste 23 Oeste 0 -- -- 45
2019-11-30 20:00:00 16.3 6 Sudeste 15 Sur 0 -- -- 49
2019-11-30 19:00:00 15.6 5 Sudeste 17 Nordeste 0 -- -- 56
2019-11-30 18:00:00 16.1 6 Este 23 Sur 0 -- -- 55
2019-11-30 17:00:00 17 6 Nordeste 19 Oeste 0 -- -- 55
2019-11-30 16:00:00 18.8 6 Sudoeste 16 Oeste 0 -- -- 49
2019-11-30 15:00:00 19.2 8 Sudoeste 24 Oeste 0 -- -- 50
2019-11-30 14:00:00 20 0 Calma 10 Sur 0 -- -- 47
2019-11-30 13:00:00 19.6 0 Calma 8 Sur 0 -- -- 47
2019-11-30 12:00:00 18.4 4 Sur 8 Sur 0 -- -- 55
2019-11-30 11:00:00 16.3 3 Sur 11 Sur 0 -- -- 60
2019-11-30 10:00:00 14.1 5 Sur 13 Sur 0 -- -- 62
2019-11-30 09:00:00 13.3 7 Sur 12 Sur 0 -- -- 63
2019-11-30 08:00:00 13.2 9 Sur 13 Sur 0 -- -- 62
2019-11-30 07:00:00 13.3 9 Sur 14 Sur 0 -- -- 61
2019-11-30 06:00:00 13.3 10 Sur 13 Sur 0 -- -- 60
2019-11-30 05:00:00 13.4 9 Sur 12 Sur 0 -- -- 60
2019-11-30 04:00:00 13.4 10 Sur 12 Sur 0 -- -- 59
2019-11-30 03:00:00 14.2 9 Sur 12 Sur 0 -- -- 57
2019-11-30 02:00:00 14.4 6 Sur 10 Sur 0 -- -- 58
2019-11-30 01:00:00 14.4 7 Sur 12 Sur 0 -- -- 56
2019-11-30 00:00:00 14.1 7 Sur 10 Sur 0 -- -- 57
2019-11-29 23:00:00 14.2 10 Sur 13 Sur 0 -- -- 55
2019-11-29 22:00:00 14.9 9 Sur 15 Sur 0 -- -- 52
2019-11-29 21:00:00 14.4 5 Sudeste 13 Sudeste 0 -- -- 56
2019-11-29 20:00:00 15.4 8 Sur 13 Sur 0 -- -- 52
2019-11-29 19:00:00 14.9 8 Sur 16 Sudeste 0 -- -- 56
2019-11-29 18:00:00 14.8 5 Sur 12 Sur 0 -- -- 58
2019-11-29 17:00:00 15.6 4 Sur 9 Sur 0 -- -- 58
2019-11-29 16:00:00 19.2 3 Sur 6 Sur 0 -- -- 54
2019-11-29 15:00:00 17.9 6 Oeste 18 Oeste 0 -- -- 63
2019-11-29 14:00:00 18.1 13 Oeste 19 Oeste 0 -- -- 60
2019-11-29 13:00:00 18.7 3 Sudeste 16 Oeste 0 -- -- 55
2019-11-29 12:00:00 18.1 5 Sudoeste 13 Sudoeste 0 -- -- 51
2019-11-29 11:00:00 18 3 Este 21 Sur 0 -- -- 45
2019-11-29 10:00:00 16.5 12 Sudoeste 25 Sudoeste 0 -- -- 48
2019-11-29 09:00:00 16.5 15 Sudoeste 31 Sudoeste 0 -- -- 55
2019-11-29 08:00:00 15.9 14 Sur 31 Sudoeste 0 -- -- 58
2019-11-29 07:00:00 15.6 9 Sudoeste 22 Sur 0 -- -- 61
2019-11-29 06:00:00 15.6 10 Sudoeste 27 Sur 0 -- -- 63
2019-11-29 05:00:00 15.6 16 Sudoeste 33 Sudoeste 0 -- -- 62
2019-11-29 04:00:00 15.5 19 Sudoeste 35 Sur 0 -- -- 61
2019-11-29 03:00:00 15.4 17 Sudoeste 30 Sudoeste 0 -- -- 60
2019-11-29 02:00:00 15.4 12 Sudoeste 30 Sudoeste 0 -- -- 57
2019-11-29 01:00:00 15.6 11 Sudoeste 37 Sudoeste 0 -- -- 53
2019-11-29 00:00:00 15.7 13 Sudoeste 32 Sudoeste 0 -- -- 53
2019-11-28 23:00:00 15.7 11 Oeste 27 Sudoeste 0 -- -- 57
2019-11-28 22:00:00 16.1 13 Sudoeste 27 Oeste 0 -- -- 52
2019-11-28 21:00:00 16.1 7 Sudoeste 22 Sudoeste 0 -- -- 41
2019-11-28 20:00:00 16.2 11 Sudoeste 35 Sudoeste 0 -- -- 42
2019-11-28 19:00:00 15.9 12 Sudoeste 29 Sudoeste 0 -- -- 47
2019-11-28 18:00:00 16 17 Sudoeste 27 Sur 0 -- -- 45
2019-11-28 17:00:00 15.7 12 Sudoeste 26 Sur 0 -- -- 57
2019-11-28 16:00:00 16.1 10 Sudoeste 32 Oeste 0 -- -- 58
2019-11-28 15:00:00 16.6 11 Sudoeste 32 Sudoeste 0 -- -- 62
2019-11-28 14:00:00 17 14 Oeste 31 Oeste 0 -- -- 60
2019-11-28 13:00:00 17.2 13 Sudoeste 27 Oeste 0 -- -- 56
2019-11-28 12:00:00 17 11 Sudoeste 31 Oeste 0 -- -- 59
2019-11-28 11:00:00 16.5 9 Sudoeste 28 Sudoeste 0 -- -- 62
2019-11-28 10:00:00 15.5 15 Sudoeste 27 Sudoeste 0 -- -- 66
2019-11-28 09:00:00 15.6 12 Sudoeste 29 Sudoeste 0 -- -- 66
2019-11-28 08:00:00 15.2 17 Sudoeste 29 Sur 0 -- -- 64
2019-11-28 07:00:00 15.1 14 Sudoeste 30 Sudoeste 0 -- -- 63
2019-11-28 06:00:00 15.3 13 Sudoeste 29 Sudoeste 0 -- -- 65
2019-11-28 05:00:00 15.3 17 Sudoeste 28 Sudoeste 0 -- -- 62
2019-11-28 04:00:00 15.3 13 Sudoeste 19 Sur 0 -- -- 59
2019-11-28 03:00:00 15.7 10 Oeste 16 Oeste 0 -- -- 56
2019-11-28 02:00:00 14.5 5 Sur 25 Sudoeste 0 -- -- 53
2019-11-28 01:00:00 15.4 13 Sudoeste 26 Sudoeste 0 -- -- 57
2019-11-28 00:00:00 15.6 13 Sudoeste 28 Sudoeste 0 -- -- 54
2019-11-27 23:00:00 15.9 14 Sudoeste 29 Sur 0 -- -- 50
2019-11-27 22:00:00 16.3 12 Sudoeste 35 Sur 0 -- -- 48
2019-11-27 21:00:00 16.6 11 Sudoeste 33 Sudoeste 0 -- -- 51
2019-11-27 20:00:00 16.2 16 Sudoeste 30 Sudoeste 0 -- -- 57
2019-11-27 19:00:00 15.7 14 Sudoeste 26 Sur 0 -- -- 64
2019-11-27 18:00:00 15.6 12 Sur 23 Sur 0 -- -- 63
2019-11-27 17:00:00 16.4 10 Sudoeste 19 Sudoeste 0 -- -- 61
2019-11-27 16:00:00 17.6 12 Oeste 22 Oeste 0 -- -- 59
2019-11-27 15:00:00 17.9 10 Oeste 23 Sudoeste 0 -- -- 60
2019-11-27 14:00:00 17.5 12 Sudoeste 27 Sudoeste 0 -- -- 60
2019-11-27 06:00:00 -- -- -- -- -- -- -- -- --
2019-11-27 05:00:00 20 25 Sudoeste 62 Oeste 0 -- -- 40
2019-11-27 04:00:00 19.6 24 Sudoeste 59 Oeste 0 -- -- 41
2019-11-27 03:00:00 20.3 19 Sudoeste 51 Oeste 0 -- -- 37
2019-11-27 02:00:00 19.5 14 Sudoeste 58 Oeste 0 -- -- 42
2019-11-27 01:00:00 19.4 21 Sudoeste 54 Oeste 0 -- -- 43
2019-11-27 00:00:00 19.8 24 Sudoeste 51 Sur 0 -- -- 41
2019-11-26 23:00:00 19.4 28 Sur 59 Sur 0 -- -- 40
2019-11-26 22:00:00 18.6 21 Sudoeste 45 Sudoeste 0 -- -- 45
2019-11-26 21:00:00 18.5 17 Sudoeste 39 Sudoeste 0 -- -- 38
2019-11-26 20:00:00 18 19 Sudoeste 39 Sudoeste 0 -- -- 39
2019-11-26 19:00:00 17.6 17 Sudoeste 37 Sudoeste 0 -- -- 40
2019-11-26 18:00:00 16.9 8 Sudoeste 20 Oeste 0 -- -- 42
2019-11-26 17:00:00 17.3 10 Oeste 44 Oeste 0 -- -- 44
2019-11-26 16:00:00 18 15 Oeste 36 Sudoeste 0 -- -- 44
2019-11-26 15:00:00 18.2 17 Sudoeste 30 Oeste 0 -- -- 48
2019-11-26 14:00:00 18.3 13 Sudoeste 26 Oeste 0 -- -- 52
2019-11-26 13:00:00 18 14 Sudoeste 25 Oeste 0 -- -- 54
2019-11-26 12:00:00 19.2 3 Noroeste 11 Oeste 0 -- -- 42
2019-11-26 11:00:00 17.8 4 Sur 12 Sur 0 -- -- 47
2019-11-26 10:00:00 16.3 10 Sur 18 Sudoeste 0 -- -- 51
2019-11-26 09:00:00 17.4 12 Sur 26 Sudeste 0 -- -- 40
2019-11-26 08:00:00 17 16 Sur 31 Sur 0 -- -- 39
2019-11-26 07:00:00 16.4 15 Sur 24 Sur 0 -- -- 42
2019-11-26 06:00:00 14.3 10 Sur 15 Sur 0 -- -- 52
2019-11-26 05:00:00 13.3 11 Sur 14 Sur 0 -- -- 57
2019-11-26 04:00:00 13.4 11 Sur 13 Sur 0 -- -- 58
2019-11-26 03:00:00 13.4 9 Sur 13 Sur 0 -- -- 60
2019-11-26 02:00:00 13.7 10 Sur 15 Sur 0 -- -- 59
2019-11-26 01:00:00 13.8 8 Sur 15 Sur 0 -- -- 60
2019-11-26 00:00:00 13.2 9 Sur 16 Sur 0 -- -- 62
2019-11-25 23:00:00 13.4 11 Sur 14 Sur 0 -- -- 61
2019-11-25 22:00:00 13 9 Sur 14 Sudoeste 0 -- -- 61
2019-11-25 21:00:00 13.2 3 Sudeste 12 Sur 0 -- -- 61
2019-11-25 20:00:00 12.7 10 Sur 14 Sur 0 -- -- 61
2019-11-25 19:00:00 12.7 9 Sur 13 Sur 0 -- -- 62
2019-11-25 18:00:00 13 10 Sur 14 Sur 0 -- -- 61
2019-11-25 17:00:00 14.3 9 Sur 16 Sudoeste 0 -- -- 58
2019-11-25 16:00:00 17.4 8 Sudoeste 19 Sudoeste 0 -- -- 45
2019-11-25 15:00:00 16.9 9 Oeste 26 Oeste 0 -- -- 56
2019-11-25 14:00:00 16.9 14 Oeste 23 Oeste 0 -- -- 59
2019-11-25 13:00:00 16.9 13 Oeste 22 Oeste 0 -- -- 57
2019-11-25 12:00:00 16.6 9 Oeste 18 Oeste 0 -- -- 60
2019-11-25 11:00:00 16.2 10 Oeste 23 Oeste 0 -- -- 59
2019-11-25 10:00:00 16.1 6 Sudoeste 17 Oeste 0 -- -- 61
2019-11-25 09:00:00 15 9 Sudoeste 21 Oeste 0 -- -- 61
2019-11-25 08:00:00 14.6 11 Sudoeste 26 Sudoeste 0 -- -- 56
2019-11-25 07:00:00 14.5 9 Oeste 27 Oeste 0 -- -- 56
2019-11-25 06:00:00 14.4 6 Sudoeste 23 Sudoeste 0 -- -- 51
2019-11-25 05:00:00 14.1 8 Sudoeste 25 Sur 0 -- -- 50
2019-11-25 04:00:00 12.5 12 Sudoeste 18 Sudoeste 0 -- -- 60
2019-11-25 03:00:00 11.8 10 Sudoeste 14 Sudoeste 0 -- -- 59
2019-11-25 02:00:00 14 6 Oeste 23 Norte 0 -- -- 51
2019-11-25 01:00:00 14.1 12 Norte 23 Noroeste 0 -- -- 47
2019-11-25 00:00:00 14.4 10 Noroeste 26 Noroeste 0 -- -- 44
2019-11-24 23:00:00 14.7 15 Norte 31 Norte 0 -- -- 43
2019-11-24 22:00:00 14.7 10 Noroeste 21 Norte 0 -- -- 48
2019-11-24 21:00:00 14.7 14 Norte 27 Noroeste 0 -- -- 46
2019-11-24 20:00:00 14.8 16 Norte 37 Noroeste 0 -- -- 49
2019-11-24 19:00:00 14.7 14 Noroeste 31 Norte 0 -- -- 50
2019-11-24 18:00:00 14.5 21 Norte 32 Norte 0 -- -- 50
2019-11-24 17:00:00 14.2 18 Norte 33 Norte 0 -- -- 52
2019-11-24 16:00:00 14.2 14 Noroeste 36 Oeste 0 -- -- 53
2019-11-24 15:00:00 14.1 16 Noroeste 35 Noroeste 0 -- -- 52
2019-11-24 14:00:00 14 15 Noroeste 35 Noroeste 0 -- -- 48
2019-11-24 13:00:00 14.1 14 Noroeste 41 Norte 0 -- -- 48
2019-11-24 12:00:00 13.9 26 Norte 42 Oeste 0 -- -- 48
2019-11-24 11:00:00 13.9 25 Norte 54 Norte 0 -- -- 47
2019-11-24 10:00:00 13.9 23 Noroeste 48 Norte 0 -- -- 47
2019-11-24 09:00:00 14.1 34 Norte 55 Noroeste 0 -- -- 45
2019-11-24 08:00:00 13.9 37 Norte 60 Noroeste 0 -- -- 48
2019-11-24 07:00:00 14 35 Norte 59 Norte 0 -- -- 47
2019-11-24 06:00:00 14.2 39 Norte 60 Norte 0 -- -- 46
2019-11-24 05:00:00 14.2 24 Noroeste 50 Norte 0 -- -- 51
2019-11-24 04:00:00 14.3 28 Noroeste 53 Norte 0 -- -- 46
2019-11-24 03:00:00 14.2 24 Noroeste 47 Noroeste 0 -- -- 48
2019-11-24 02:00:00 14.3 21 Noroeste 40 Noroeste 0 -- -- 49
2019-11-24 01:00:00 14.6 32 Norte 55 Noroeste 0 -- -- 46
2019-11-24 00:00:00 14.8 29 Norte 49 Norte 0 -- -- 45
2019-11-23 23:00:00 14.9 22 Noroeste 47 Norte 0 -- -- 42
2019-11-23 22:00:00 15 27 Norte 60 Norte 0 -- -- 48
2019-11-23 21:00:00 15.1 34 Norte 62 Noroeste 0 -- -- 44
2019-11-23 20:00:00 15.3 35 Norte 67 Oeste 0 -- -- 40
2019-11-23 19:00:00 15.3 34 Norte 51 Norte 0 -- -- 44
2019-11-23 18:00:00 15 37 Norte 53 Noroeste 0 -- -- 41
2019-11-23 17:00:00 14.6 17 Noroeste 45 Noroeste 0 -- -- 53
2019-11-23 16:00:00 14.5 24 Noroeste 53 Noroeste 0 -- -- 47
2019-11-23 15:00:00 14.1 23 Noroeste 50 Norte 0 -- -- 54
2019-11-23 14:00:00 14.1 34 Norte 55 Norte 0.2 -- -- 58
2019-11-23 13:00:00 13.3 5 Oeste 51 Norte 0.4 -- -- 61
2019-11-23 12:00:00 14.1 34 Norte 59 Noroeste 0 -- -- 57
2019-11-23 11:00:00 14.5 19 Sudoeste 44 Oeste 0 -- -- 54
2019-11-23 10:00:00 14.6 14 Sudoeste 51 Sudoeste 0 -- -- 51
2019-11-23 09:00:00 15.6 24 Sudoeste 55 Sudoeste 0 -- -- 45
2019-11-23 08:00:00 15.8 23 Sudoeste 51 Sudoeste 0 -- -- 42
2019-11-23 07:00:00 16.6 26 Oeste 50 Sudoeste 0.2 -- -- 40
2019-11-23 06:00:00 16.5 17 Sudoeste 52 Oeste 0 -- -- 43
2019-11-23 05:00:00 16.5 17 Sudoeste 46 Oeste 0 -- -- 45
2019-11-23 04:00:00 16.9 17 Sudoeste 49 Sudoeste 0 -- -- 52
2019-11-23 03:00:00 17.1 9 Sudoeste 45 Oeste 0 -- -- 63
2019-11-23 02:00:00 17.1 7 Sur 59 Sur 0 -- -- 63
2019-11-23 01:00:00 16.8 22 Sudoeste 67 Oeste 0.4 -- -- 65
2019-11-23 00:00:00 16.7 15 Sur 67 Sur 1.6 -- -- 65
2019-11-22 23:00:00 16.2 22 Sudoeste 72 Sudoeste 4.2 -- -- 69
2019-11-22 22:00:00 15.6 17 Sudoeste 55 Sudoeste 8 -- -- 72
2019-11-22 21:00:00 15.7 12 Sudoeste 55 Sudoeste 3.8 -- -- 69
2019-11-22 20:00:00 16.1 14 Sudoeste 41 Sur 0.6 -- -- 63
2019-11-22 19:00:00 16.3 21 Sur 53 Sur 0.4 -- -- 65
2019-11-22 18:00:00 16.4 15 Sudoeste 65 Sur 1 -- -- 64
2019-11-22 17:00:00 16.8 23 Sur 54 Sur 0 -- -- 60
2019-11-22 16:00:00 17.4 13 Sudoeste 55 Oeste 0 -- -- 56
2019-11-22 15:00:00 17.4 15 Sudoeste 39 Oeste 0 -- -- 55
2019-11-22 14:00:00 17.4 10 Sudoeste 41 Oeste 0 -- -- 56
2019-11-22 13:00:00 17.2 12 Oeste 28 Oeste 0 -- -- 56
2019-11-22 12:00:00 17.1 12 Oeste 29 Sur 0 -- -- 57
2019-11-22 11:00:00 16.8 9 Sur 24 Sudoeste 0 -- -- 58
2019-11-22 10:00:00 16.2 4 Este 19 Oeste 0 -- -- 59
2019-11-22 09:00:00 15.3 9 Sur 21 Sur 0 -- -- 59
2019-11-22 08:00:00 14.4 8 Sur 22 Sur 0 -- -- 63
2019-11-22 07:00:00 14.7 10 Sur 29 Sudeste 0 -- -- 61
2019-11-22 06:00:00 14.4 10 Sur 21 Sur 0 -- -- 63
2019-11-22 05:00:00 13.5 5 Sudoeste 12 Sur 0 -- -- 63
2019-11-22 04:00:00 13.1 10 Sur 17 Sur 0 -- -- 59
2019-11-22 03:00:00 14 6 Sudoeste 21 Sudoeste 0 -- -- 53
2019-11-22 02:00:00 14.5 5 Sur 28 Sudoeste 0 -- -- 47
2019-11-22 01:00:00 15.2 8 Sur 30 Sur 0 -- -- 48
2019-11-22 00:00:00 15.6 10 Sur 27 Sudoeste 0 -- -- 42
2019-11-21 23:00:00 14.7 13 Sur 28 Sudeste 0 -- -- 52
2019-11-21 22:00:00 15 9 Sur 29 Sudoeste 0 -- -- 46
2019-11-21 21:00:00 14.7 6 Sudoeste 21 Sudeste 0 -- -- 49
2019-11-21 20:00:00 13.9 8 Sudoeste 20 Sudoeste 0 -- -- 53
2019-11-21 19:00:00 13.2 7 Sur 19 Sudoeste 0 -- -- 57
2019-11-21 18:00:00 13.5 8 Sudoeste 19 Sudoeste 0 -- -- 56
2019-11-21 17:00:00 14.1 6 Sudoeste 23 Sudoeste 0 -- -- 54
2019-11-21 16:00:00 14.4 12 Oeste 28 Sudoeste 0 -- -- 52
2019-11-21 15:00:00 14.9 16 Sudoeste 29 Sudoeste 0 -- -- 49
2019-11-21 14:00:00 14.7 13 Oeste 31 Oeste 0 -- -- 52
2019-11-21 13:00:00 14.6 12 Oeste 28 Oeste 0 -- -- 52
2019-11-21 12:00:00 14.3 13 Oeste 35 Oeste 0 -- -- 54
2019-11-21 11:00:00 14.3 13 Oeste 31 Sudoeste 0 -- -- 57
2019-11-21 10:00:00 14 14 Oeste 31 Oeste 0 -- -- 58
2019-11-21 09:00:00 13.9 9 Sudoeste 28 Sudoeste 0 -- -- 58
2019-11-21 08:00:00 13.5 13 Sudoeste 25 Sudoeste 0 -- -- 58
2019-11-21 07:00:00 12.9 9 Sudoeste 26 Sur 0 -- -- 60
2019-11-21 06:00:00 12.3 13 Sur 25 Sur 0 -- -- 61
2019-11-21 05:00:00 11.2 9 Sur 22 Sudoeste 0.2 -- -- 70
2019-11-21 04:00:00 11.7 15 Sur 50 Oeste 2 -- -- 69
2019-11-21 03:00:00 13.5 9 Sur 20 Sur 0 -- -- 53
2019-11-21 02:00:00 13.3 5 Sur 16 Sudoeste 0 -- -- 52
2019-11-21 01:00:00 13.7 9 Sudoeste 19 Sur 0 -- -- 52
2019-11-21 00:00:00 13.5 6 Sudoeste 25 Sur 0 -- -- 51
2019-11-20 23:00:00 13.5 9 Sur 29 Sudoeste 0 -- -- 49
2019-11-20 22:00:00 12.8 9 Sur 24 Sudeste 0 -- -- 53
2019-11-20 21:00:00 12.8 9 Sur 24 Sur 0 -- -- 57
2019-11-20 20:00:00 13.1 11 Sur 31 Sudeste 0 -- -- 54
2019-11-20 19:00:00 12.9 13 Sur 33 Sur 0 -- -- 55
2019-11-20 18:00:00 12.9 18 Sudeste 29 Sur 0 -- -- 57
2019-11-20 17:00:00 13.2 14 Sudeste 28 Sudeste 0 -- -- 56
2019-11-20 16:00:00 13.5 13 Sudeste 29 Sudeste 0 -- -- 51
2019-11-20 15:00:00 14 12 Sudeste 24 Sudeste 0 -- -- 48
2019-11-20 14:00:00 15.8 13 Sudeste 25 Sudeste 0 -- -- 42
2019-11-20 13:00:00 15.7 8 Sudeste 25 Sur 0 -- -- 39
2019-11-20 12:00:00 13.8 13 Sur 25 Sudeste 0 -- -- 44
2019-11-20 11:00:00 13.5 13 Sur 29 Sur 0 -- -- 43
2019-11-20 10:00:00 12.7 10 Sur 22 Sur 0 -- -- 43
2019-11-20 09:00:00 11.3 11 Sur 18 Sur 0 -- -- 52
2019-11-20 08:00:00 9.7 10 Sur 15 Sur 0 -- -- 57
2019-11-20 07:00:00 9 11 Sur 18 Sur 0 -- -- 58
2019-11-20 06:00:00 9.8 11 Sur 16 Sudoeste 0 -- -- 64
2019-11-20 05:00:00 8.3 11 Sur 15 Sur 0 -- -- 67
2019-11-20 04:00:00 8.7 11 Sur 16 Sur 0 -- -- 64
2019-11-20 03:00:00 9.2 11 Sur 14 Sur 0 -- -- 66
2019-11-20 02:00:00 8.8 10 Sur 14 Sur 0 -- -- 66
2019-11-20 01:00:00 8.6 8 Sur 13 Sur 0 -- -- 64
2019-11-20 00:00:00 9.5 10 Sur 14 Sur 0 -- -- 63
2019-11-19 23:00:00 9.5 10 Sur 15 Sudoeste 0 -- -- 61
2019-11-19 22:00:00 8.9 11 Sur 15 Sur 0 -- -- 64
2019-11-19 21:00:00 7.9 11 Sur 17 Sur 0 -- -- 64
2019-11-19 20:00:00 8.1 12 Sur 15 Sur 0 -- -- 62
2019-11-19 19:00:00 8.3 12 Sur 16 Sur 0 -- -- 61
2019-11-19 18:00:00 9 11 Sur 17 Sur 0 -- -- 59
2019-11-19 17:00:00 10.1 9 Sur 14 Sudoeste 0 -- -- 55
2019-11-19 16:00:00 13.9 6 Oeste 22 Noroeste 0 -- -- 38
2019-11-19 15:00:00 14 9 Noroeste 19 Noroeste 0 -- -- 40
2019-11-19 14:00:00 13.7 7 Sudoeste 13 Oeste 0.2 -- -- 44
2019-11-19 13:00:00 13.5 4 Oeste 11 Noroeste 0 -- -- 46
2019-11-19 12:00:00 12.7 6 Oeste 19 Noroeste 0 -- -- 48
2019-11-19 11:00:00 12.4 7 Noroeste 21 Oeste 0 -- -- 54
2019-11-19 10:00:00 11.4 9 Sur 13 Sudoeste 0 -- -- 64
2019-11-19 09:00:00 10.5 8 Sur 18 Noroeste 0 -- -- 63
2019-11-19 08:00:00 9.7 10 Sudoeste 19 Sudoeste 0 -- -- 77
2019-11-19 07:00:00 8.4 13 Sur 20 Sudoeste 0 -- -- 80
2019-11-19 06:00:00 7.8 11 Sur 14 Sur 0 -- -- 80
2019-11-19 05:00:00 7.9 8 Sur 12 Sur 0 -- -- 80
2019-11-19 04:00:00 7.9 4 Sur 13 Este 0 -- -- 79
2019-11-19 03:00:00 8.7 5 Sudeste 14 Sudeste 0 -- -- 79
2019-11-19 02:00:00 8.9 6 Sudeste 12 Sudeste 0 -- -- 78
2019-11-19 01:00:00 9.2 8 Sur 14 Sudeste 0 -- -- 78
2019-11-19 00:00:00 9.4 8 Sudeste 31 Norte 2.6 -- -- 77
2019-11-18 23:00:00 10.4 16 Norte 42 Norte 2.6 -- -- 72
2019-11-18 22:00:00 12.8 14 Nordeste 36 Este 0 -- -- 48
2019-11-18 21:00:00 12.9 19 Nordeste 38 Nordeste 0 -- -- 43
2019-11-18 20:00:00 12.7 23 Nordeste 46 Nordeste 0 -- -- 45
2019-11-18 19:00:00 12.6 19 Nordeste 41 Nordeste 0 -- -- 51
2019-11-18 18:00:00 12.5 26 Nordeste 54 Norte 0 -- -- 52
2019-11-18 17:00:00 12.6 25 Nordeste 48 Norte 0 -- -- 53
2019-11-18 16:00:00 13 27 Norte 50 Norte 0.2 -- -- 55
2019-11-18 15:00:00 13.4 26 Nordeste 46 Nordeste 0 -- -- 53
2019-11-18 14:00:00 13.4 26 Nordeste 46 Nordeste 0 -- -- 59
2019-11-18 13:00:00 13.8 17 Norte 40 Norte 0 -- -- 59
2019-11-18 12:00:00 13.9 26 Norte 36 Norte 0 -- -- 55
2019-11-18 11:00:00 13.6 22 Norte 36 Norte 0 -- -- 54
2019-11-18 10:00:00 13.3 27 Norte 40 Norte 0 -- -- 57
2019-11-18 09:00:00 13.4 24 Norte 37 Norte 0 -- -- 57
2019-11-18 08:00:00 13 13 Norte 34 Norte 0.2 -- -- 61
2019-11-18 07:00:00 12.1 5 Este 29 Noroeste 0 -- -- 80
2019-11-18 06:00:00 11.7 5 Sudoeste 10 Norte 0.6 -- -- 79
2019-11-18 05:00:00 11.2 6 Sudoeste 28 Sur 6.8 -- -- 76
2019-11-18 04:00:00 12.2 14 Sudoeste 19 Sudoeste 0 -- -- 75
2019-11-18 03:00:00 12.2 14 Sudoeste 23 Sudoeste 0.4 -- -- 73
2019-11-18 02:00:00 12.1 14 Sudoeste 31 Sur 0.8 -- -- 70
2019-11-18 01:00:00 12.8 10 Sudoeste 25 Oeste 1.2 -- -- 60
2019-11-18 00:00:00 14.2 8 Sudoeste 35 Sudoeste 0 -- -- 56
2019-11-17 23:00:00 14.8 12 Sudoeste 26 Sudeste 0 -- -- 51
2019-11-17 22:00:00 14.6 12 Sur 26 Sudoeste 0 -- -- 47
2019-11-17 21:00:00 14.3 11 Sur 26 Sur 0 -- -- 46
2019-11-17 20:00:00 14.5 10 Sudoeste 30 Sudoeste 0 -- -- 42
2019-11-17 19:00:00 14.1 13 Sudoeste 35 Sudoeste 0 -- -- 44
2019-11-17 18:00:00 13.5 14 Sudoeste 31 Sudoeste 0 -- -- 45
2019-11-17 17:00:00 13.7 13 Sudoeste 36 Oeste 0 -- -- 45
2019-11-17 16:00:00 14.5 18 Sudoeste 35 Sudoeste 0 -- -- 41
2019-11-17 15:00:00 14.2 15 Oeste 35 Oeste 0 -- -- 39
2019-11-17 14:00:00 14.5 16 Sudoeste 35 Oeste 0 -- -- 40
2019-11-17 13:00:00 13.9 13 Oeste 33 Oeste 0 -- -- 43
2019-11-17 12:00:00 14 9 Oeste 28 Oeste 0 -- -- 36
2019-11-17 11:00:00 14 13 Oeste 36 Noroeste 0 -- -- 35
2019-11-17 10:00:00 13.7 13 Oeste 34 Oeste 0 -- -- 35
2019-11-17 09:00:00 13.5 15 Noroeste 35 Noroeste 0 -- -- 35
2019-11-17 08:00:00 13.5 14 Noroeste 29 Noroeste 0 -- -- 36
2019-11-17 07:00:00 13.8 18 Noroeste 31 Noroeste 0 -- -- 35
2019-11-17 06:00:00 13.8 17 Noroeste 35 Noroeste 0 -- -- 34
2019-11-17 05:00:00 14 17 Noroeste 40 Norte 0 -- -- 38
2019-11-17 04:00:00 13.5 22 Norte 47 Norte 0 -- -- 34
2019-11-17 03:00:00 13.6 33 Norte 49 Norte 0 -- -- 36
2019-11-17 02:00:00 13.8 31 Norte 50 Noroeste 0 -- -- 35
2019-11-17 01:00:00 13.9 32 Noroeste 51 Noroeste 0 -- -- 39
2019-11-17 00:00:00 14 27 Noroeste 46 Noroeste 0 -- -- 43
2019-11-16 23:00:00 13.3 20 Noroeste 40 Noroeste 0 -- -- 42
2019-11-16 22:00:00 12.6 23 Norte 53 Norte 0 -- -- 46
2019-11-16 21:00:00 12.6 30 Norte 41 Norte 0 -- -- 46
2019-11-16 20:00:00 12.7 32 Norte 42 Noroeste 0 -- -- 55
2019-11-16 19:00:00 12.5 23 Norte 36 Norte 0 -- -- 58
2019-11-16 18:00:00 12.6 23 Norte 33 Norte 0 -- -- 59
2019-11-16 17:00:00 11.1 6 Sudeste 26 Este 0 -- -- 58
2019-11-16 16:00:00 13 10 Nordeste 26 Nordeste 0 -- -- 47
2019-11-16 15:00:00 13.8 6 Sudeste 42 Nordeste 0.2 -- -- 44
2019-11-16 14:00:00 12.7 23 Norte 40 Norte 0 -- -- 61
2019-11-16 13:00:00 12.8 21 Norte 35 Norte 0 -- -- 53
2019-11-16 12:00:00 13.4 5 Nordeste 11 Sudeste 0 -- -- 48
2019-11-16 11:00:00 12.6 5 Sudeste 13 Sudeste 0 -- -- 55
2019-11-16 10:00:00 11.4 7 Sudeste 13 Este 0 -- -- 59
2019-11-16 09:00:00 10 7 Sudeste 17 Sudeste 0 -- -- 63
2019-11-16 08:00:00 9.2 9 Sudeste 15 Sudeste 0 -- -- 65
2019-11-16 07:00:00 8.9 7 Sudeste 14 Sur 0 -- -- 71
2019-11-16 06:00:00 7.9 9 Sur 14 Sur 0 -- -- 73
2019-11-16 05:00:00 7.9 6 Sur 19 Sur 0 -- -- 69
2019-11-16 04:00:00 8.3 10 Sur 18 Sur 0 -- -- 74
2019-11-16 03:00:00 8.5 9 Sudeste 17 Sur 0.6 -- -- 75
2019-11-16 02:00:00 8.3 8 Sur 19 Sudeste 6.6 -- -- 73
2019-11-16 01:00:00 10.6 19 Noroeste 40 Noroeste 0.8 -- -- 59
2019-11-16 00:00:00 12.2 26 Sur 46 Sur 0 -- -- 38
2019-11-15 23:00:00 12.2 15 Sur 28 Sur 0 -- -- 36
2019-11-15 22:00:00 11.4 13 Sur 22 Sudoeste 0 -- -- 43
2019-11-15 21:00:00 10.9 10 Sur 22 Sudoeste 0 -- -- 46
2019-11-15 20:00:00 10.8 11 Sudoeste 22 Sudoeste 0 -- -- 49
2019-11-15 19:00:00 11 10 Sudoeste 22 Sudoeste 0 -- -- 49
2019-11-15 18:00:00 12 8 Oeste 31 Noroeste 0 -- -- 42
2019-11-15 17:00:00 12.1 7 Sudoeste 25 Oeste 0 -- -- 44
2019-11-15 16:00:00 12.3 5 Sudoeste 17 Sur 0 -- -- 49
2019-11-15 15:00:00 13.2 9 Oeste 17 Sudoeste 0 -- -- 40
2019-11-15 14:00:00 13.2 8 Oeste 23 Oeste 0 -- -- 40
2019-11-15 13:00:00 12.3 12 Noroeste 26 Noroeste 0 -- -- 53
2019-11-15 12:00:00 11.7 5 Oeste 42 Norte 0 -- -- 44
2019-11-15 11:00:00 11.7 19 Norte 30 Norte 0 -- -- 58
2019-11-15 10:00:00 11.6 14 Noroeste 24 Norte 0 -- -- 57
2019-11-15 09:00:00 10.8 15 Norte 40 Noroeste 0 -- -- 65
2019-11-15 08:00:00 11 30 Norte 59 Norte 0 -- -- 66
2019-11-15 07:00:00 12.4 26 Noroeste 51 Norte 0 -- -- 57
2019-11-15 06:00:00 11.8 12 Sudoeste 39 Sudoeste 0.4 -- -- 51
2019-11-15 05:00:00 11.6 17 Sudoeste 45 Sudoeste 0 -- -- 55
2019-11-15 04:00:00 10.2 15 Sudoeste 53 Sudoeste 2.8 -- -- 60
2019-11-15 03:00:00 12.3 17 Sur 37 Sudoeste 0.2 -- -- 38
2019-11-15 02:00:00 13.2 14 Sudoeste 36 Sudoeste 0 -- -- 44
2019-11-15 01:00:00 11.6 5 Sur 19 Sur 0 -- -- 48
2019-11-15 00:00:00 10.2 13 Sur 32 Sur 0 -- -- 52